Bristol, Tennessee
Current Conditions -  °F | °C
As of 5:35 AM on Wednesday 22 Oct 2014 (Local Time) from KVJI Reporting Station
Overcast Overcast  
Wind Chill:   Ceiling: 2600
Heat Index:   Visibility: 10mi
Dew Point:   Wind: 6mph
Humidity: 73%   Direction: 350°N
Pressure: 30.1"   Gusts: NA
Location:  36.59°N, 82.22°W
Report Text: KVJI 220935Z AUTO 35005KT 10SM OVC026 08/03 A3010 RMK AO2 T00760031
Loading
Personal Weather Stations






























Interactive Weather Map New forecast layout! Learn more

10-Day Weather Forecast

Advertisements
Track Severe Weather on mobile